Time;durP1;ratioP1;P1;durP2;ratioP2;P2;SDS_P1;SDS_P2;PMS_P1;PMS_P2;Temp;Humidity;BMP_temperature;BMP_pressure;BME280_temperature;BME280_humidity;BME280_pressure;Samples;Min_cycle;Max_cycle;Signal;HPM_P1;HPM_P2
2021/07/30 00:02:25;;;;;;;23.10;11.20;;;665.70;2432.00;;;;;;5039055;28;20021;-89
2021/07/30 00:04:52;;;;;;;24.30;10.77;;;665.70;2432.00;;;;;;5038439;28;20454;-89
2021/07/30 00:07:18;;;;;;;25.42;11.10;;;665.80;2432.00;;;;;;5038284;28;20104;-89
2021/07/30 00:09:44;;;;;;;31.50;11.18;;;665.70;2432.00;;;;;;5037663;28;20060;-89
2021/07/30 00:12:10;;;;;;;18.90;10.10;;;665.70;2432.00;;;;;;5037301;28;20014;-88
2021/07/30 00:14:37;;;;;;;28.80;11.10;;;640.90;2432.00;;;;;;5037593;28;20109;-88
2021/07/30 00:17:03;;;;;;;24.40;10.85;;;665.60;2432.00;;;;;;5037203;28;20025;-88
2021/07/30 00:19:29;;;;;;;23.02;10.82;;;640.70;2432.00;;;;;;5037219;28;20021;-89
2021/07/30 00:21:56;;;;;;;22.65;10.52;;;640.80;2432.00;;;;;;5037512;28;20017;-89
2021/07/30 00:24:22;;;;;;;27.67;10.98;;;640.60;2432.00;;;;;;5039614;28;20020;-88
2021/07/30 00:26:50;;;;;;;20.35;10.85;;;;;;;;;;5037634;28;20026;-89
2021/07/30 00:29:17;;;;;;;23.65;11.27;;;640.20;2432.00;;;;;;5037648;28;20029;-88
2021/07/30 00:31:43;;;;;;;24.48;11.43;;;640.30;2432.00;;;;;;5037742;28;20032;-89
2021/07/30 00:34:09;;;;;;;26.23;10.15;;;640.40;2432.00;;;;;;5041103;28;20094;-88
2021/07/30 00:36:36;;;;;;;26.15;12.05;;;640.60;2432.00;;;;;;5038600;28;20013;-89
2021/07/30 00:39:02;;;;;;;21.20;10.77;;;640.70;2432.00;;;;;;5038184;28;20025;-89
2021/07/30 00:41:28;;;;;;;25.50;11.95;;;640.60;2432.00;;;;;;5040421;28;20057;-89
2021/07/30 00:43:54;;;;;;;22.48;11.20;;;640.60;2432.00;;;;;;5038555;28;20028;-88
2021/07/30 00:46:21;;;;;;;24.80;11.23;;;640.60;2432.00;;;;;;5038896;28;20023;-88
2021/07/30 00:48:47;;;;;;;20.48;10.88;;;640.40;2432.00;;;;;;5039420;28;20065;-88
2021/07/30 00:51:14;;;;;;;24.73;11.48;;;640.20;2432.00;;;;;;5036841;28;20028;-89
2021/07/30 00:53:41;;;;;;;24.13;11.35;;;640.20;2432.00;;;;;;5036866;28;20033;-86
2021/07/30 00:56:07;;;;;;;20.77;11.15;;;640.20;2432.00;;;;;;5038222;28;20467;-89
2021/07/30 00:58:33;;;;;;;21.42;10.82;;;640.00;2432.00;;;;;;5036862;28;20111;-88
2021/07/30 01:01:01;;;;;;;22.63;10.85;;;640.00;2432.00;;;;;;5036940;28;20480;-87
2021/07/30 01:03:28;;;;;;;27.92;11.43;;;640.20;2432.00;;;;;;5037118;28;20367;-88
2021/07/30 01:05:55;;;;;;;24.38;11.27;;;640.10;2432.00;;;;;;5037063;28;20017;-87
2021/07/30 01:08:21;;;;;;;19.98;10.98;;;640.10;2432.00;;;;;;5037865;28;20021;-87
2021/07/30 01:10:49;;;;;;;21.17;10.30;;;615.20;2432.00;;;;;;5036861;28;20111;-87
2021/07/30 01:13:15;;;;;;;25.08;10.93;;;640.10;2432.00;;;;;;5036045;28;20028;-87
2021/07/30 01:15:41;;;;;;;23.58;10.85;;;640.20;2432.00;;;;;;5037056;28;20077;-88
2021/07/30 01:18:07;;;;;;;21.95;10.95;;;640.10;2432.00;;;;;;5036532;28;20025;-88
2021/07/30 01:20:38;;;;;;;25.27;11.20;;;615.10;2432.00;;;;;;5036563;28;20028;-88
2021/07/30 01:23:07;;;;;;;21.40;11.20;;;615.30;2432.00;;;;;;5038405;28;20053;-85
2021/07/30 01:25:33;;;;;;;19.80;11.27;;;640.00;2432.00;;;;;;5051348;28;20093;-87
2021/07/30 01:28:00;;;;;;;26.83;13.10;;;615.30;2432.00;;;;;;5053295;28;20021;-87
2021/07/30 01:30:26;;;;;;;24.90;11.77;;;615.10;2432.00;;;;;;5053460;28;20021;-86
2021/07/30 01:32:52;;;;;;;25.42;11.23;;;615.30;2432.00;;;;;;5053827;28;20032;-86
2021/07/30 01:35:18;;;;;;;25.85;10.93;;;615.30;2432.00;;;;;;5055150;28;20022;-87
2021/07/30 01:37:45;;;;;;;23.52;11.25;;;615.30;2432.00;;;;;;5054525;28;20036;-87
2021/07/30 01:40:11;;;;;;;19.20;11.85;;;615.20;2432.00;;;;;;5054687;28;20028;-87
2021/07/30 01:42:38;;;;;;;21.50;12.27;;;615.20;2432.00;;;;;;5055231;28;20077;-86
2021/07/30 01:45:08;;;;;;;21.70;11.00;;;615.20;2432.00;;;;;;5054961;28;20020;-88
2021/07/30 01:47:36;;;;;;;21.77;10.73;;;615.10;2432.00;;;;;;5054808;28;20019;-88
2021/07/30 01:50:03;;;;;;;20.88;11.90;;;615.10;2432.00;;;;;;5052669;28;20024;-87
2021/07/30 01:52:29;;;;;;;25.45;11.80;;;615.10;2432.00;;;;;;5046388;28;20108;-85
2021/07/30 01:54:55;;;;;;;23.20;11.65;;;615.10;2432.00;;;;;;5047765;28;20025;-86
2021/07/30 01:57:21;;;;;;;28.17;11.98;;;615.00;2432.00;;;;;;5051607;28;20037;-88
2021/07/30 01:59:48;;;;;;;23.63;12.48;;;;;;;;;;5058084;28;20085;-89
2021/07/30 02:02:14;;;;;;;24.58;11.75;;;615.30;2432.00;;;;;;5058327;28;20021;-89
2021/07/30 02:04:40;;;;;;;26.02;11.98;;;615.20;2432.00;;;;;;5058398;28;20081;-89
2021/07/30 02:07:06;;;;;;;29.67;12.38;;;615.20;2432.00;;;;;;5058123;28;20021;-89
2021/07/30 02:09:32;;;;;;;21.40;11.13;;;615.10;2432.00;;;;;;5058334;28;20018;-89
2021/07/30 02:11:59;;;;;;;18.92;11.48;;;615.20;2432.00;;;;;;5058298;28;20014;-89
2021/07/30 02:14:27;;;;;;;25.25;12.02;;;640.00;2432.00;;;;;;5058012;28;20033;-87
2021/07/30 02:17:00;;;;;;;23.42;12.10;;;615.10;2432.00;;;;;;5057873;28;20033;-88
2021/07/30 02:19:26;;;;;;;25.20;11.45;;;615.10;2432.00;;;;;;5058494;28;20067;-89
2021/07/30 02:21:54;;;;;;;23.17;11.15;;;614.90;2432.00;;;;;;5058474;28;20028;-87
2021/07/30 02:24:22;;;;;;;25.75;11.88;;;614.90;2432.00;;;;;;5058086;28;20113;-88
2021/07/30 02:26:48;;;;;;;22.48;12.27;;;615.00;2432.00;;;;;;5057680;28;20026;-89
2021/07/30 02:29:15;;;;;;;24.40;12.23;;;614.90;2432.00;;;;;;5058303;28;20013;-87
2021/07/30 02:31:41;;;;;;;20.10;12.40;;;614.80;2432.00;;;;;;5058150;28;20013;-87
2021/07/30 02:34:07;;;;;;;24.83;13.43;;;615.10;2432.00;;;;;;5058205;28;20041;-88
2021/07/30 02:36:33;;;;;;;26.38;13.82;;;;;;;;;;5058142;28;20020;-88
2021/07/30 02:39:00;;;;;;;25.55;13.25;;;589.70;2432.00;;;;;;5042787;28;20033;-89
2021/07/30 02:41:26;;;;;;;24.35;12.07;;;589.70;2432.00;;;;;;5033905;28;20020;-88
2021/07/30 02:43:52;;;;;;;26.15;13.32;;;589.70;2432.00;;;;;;5034144;28;20063;-89
2021/07/30 02:46:19;;;;;;;22.40;12.10;;;589.70;2432.00;;;;;;5034108;28;20025;-89
2021/07/30 02:48:46;;;;;;;27.95;12.88;;;614.50;2432.00;;;;;;5033756;28;20025;-89
2021/07/30 02:51:13;;;;;;;22.80;11.70;;;614.40;2432.00;;;;;;5034154;28;20017;-89
2021/07/30 02:53:40;;;;;;;19.67;11.88;;;614.70;2432.00;;;;;;5033803;28;20455;-88
2021/07/30 02:56:06;;;;;;;23.02;11.75;;;614.50;2432.00;;;;;;5033687;28;20360;-89
2021/07/30 02:58:32;;;;;;;19.85;12.80;;;614.70;2432.00;;;;;;5033868;28;20106;-88
2021/07/30 03:00:59;;;;;;;20.08;13.43;;;614.60;2432.00;;;;;;5033642;28;20029;-89
2021/07/30 03:03:26;;;;;;;27.35;12.07;;;614.70;2432.00;;;;;;5033641;28;20014;-88
2021/07/30 03:05:52;;;;;;;26.00;12.20;;;614.80;2432.00;;;;;;5033564;28;20093;-89
2021/07/30 03:08:21;;;;;;;20.25;11.73;;;614.80;2432.00;;;;;;5033714;28;20462;-88
2021/07/30 03:10:47;;;;;;;24.70;13.32;;;614.70;2432.00;;;;;;5033712;28;20053;-89
2021/07/30 03:13:13;;;;;;;29.15;12.13;;;615.00;2432.00;;;;;;5033477;28;20093;-89
2021/07/30 03:15:39;;;;;;;20.30;12.30;;;614.70;2432.00;;;;;;5033530;28;20053;-88
2021/07/30 03:18:05;;;;;;;27.50;12.65;;;614.60;2432.00;;;;;;5033870;28;20450;-89
2021/07/30 03:20:32;;;;;;;23.05;11.55;;;589.70;2432.00;;;;;;5033551;28;20021;-89
2021/07/30 03:22:58;;;;;;;26.33;12.55;;;614.40;2432.00;;;;;;5033640;28;20014;-89
2021/07/30 03:25:24;;;;;;;21.52;12.40;;;614.40;2432.00;;;;;;5033840;28;20115;-88
2021/07/30 03:27:50;;;;;;;26.35;13.27;;;589.60;2432.00;;;;;;5033358;28;20468;-88
2021/07/30 03:30:17;;;;;;;21.85;12.70;;;589.40;2432.00;;;;;;5033482;28;20025;-89
2021/07/30 03:32:43;;;;;;;23.35;10.85;;;589.20;2432.00;;;;;;5033705;28;20025;-88
2021/07/30 03:35:10;;;;;;;25.75;13.18;;;589.20;2432.00;;;;;;5034348;28;20021;-88
2021/07/30 03:37:36;;;;;;;22.70;10.52;;;589.40;2432.00;;;;;;5037040;28;20021;-88
2021/07/30 03:40:03;;;;;;;19.90;11.55;;;589.20;2432.00;;;;;;5037332;28;20022;-88
2021/07/30 03:42:30;;;;;;;23.60;11.95;;;589.30;2432.00;;;;;;5036853;28;20017;-88
2021/07/30 03:44:56;;;;;;;21.45;11.30;;;589.10;2432.00;;;;;;5036800;28;20018;-89
2021/07/30 03:47:22;;;;;;;20.90;11.80;;;589.40;2432.00;;;;;;5037291;28;20058;-89
2021/07/30 03:49:48;;;;;;;24.50;11.98;;;538.50;2406.40;;;;;;5036809;28;20078;-89
2021/07/30 03:52:18;;;;;;;23.08;13.07;;;589.50;2432.00;;;;;;5036518;28;20022;-87
2021/07/30 03:54:44;;;;;;;30.02;12.10;;;589.20;2432.00;;;;;;5036375;28;20088;-89
2021/07/30 03:57:11;;;;;;;17.83;11.52;;;589.50;2432.00;;;;;;5036375;28;20482;-88
2021/07/30 03:59:37;;;;;;;23.50;12.02;;;589.30;2432.00;;;;;;5036557;28;20084;-89
2021/07/30 04:02:03;;;;;;;27.73;14.25;;;588.80;2432.00;;;;;;5036650;28;20021;-88
2021/07/30 04:04:29;;;;;;;24.15;13.35;;;589.30;2432.00;;;;;;5036727;28;20057;-88
2021/07/30 04:06:55;;;;;;;25.67;13.25;;;589.00;2432.00;;;;;;5036864;28;20018;-88
2021/07/30 04:09:22;;;;;;;21.15;12.10;;;589.00;2432.00;;;;;;5036492;28;20018;-88
2021/07/30 04:11:48;;;;;;;21.27;13.32;;;589.00;2432.00;;;;;;5036330;28;20087;-89
2021/07/30 04:14:14;;;;;;;24.67;12.02;;;589.00;2432.00;;;;;;5036439;28;20072;-89
2021/07/30 04:16:40;;;;;;;33.08;12.60;;;588.90;2432.00;;;;;;5036533;28;20030;-89
2021/07/30 04:19:09;;;;;;;29.15;13.00;;;564.10;2432.00;;;;;;5036584;28;20108;-89
2021/07/30 04:21:38;;;;;;;29.25;14.18;;;564.10;2432.00;;;;;;5036104;28;20017;-89
2021/07/30 04:24:04;;;;;;;27.30;13.05;;;588.80;2432.00;;;;;;5036038;28;20196;-89
2021/07/30 04:26:31;;;;;;;21.75;13.63;;;589.10;2432.00;;;;;;5036081;28;20013;-89
2021/07/30 04:28:57;;;;;;;24.77;13.35;;;588.90;2432.00;;;;;;5035947;28;20025;-89
2021/07/30 04:31:24;;;;;;;22.83;12.10;;;589.00;2432.00;;;;;;5036028;28;20382;-89
2021/07/30 04:33:50;;;;;;;30.23;13.15;;;589.10;2432.00;;;;;;5035788;28;20025;-89
2021/07/30 04:36:16;;;;;;;21.85;12.00;;;588.90;2432.00;;;;;;5036144;28;20052;-88
2021/07/30 04:38:43;;;;;;;26.00;12.45;;;589.00;2432.00;;;;;;5035780;28;20028;-89
2021/07/30 04:41:10;;;;;;;25.73;11.48;;;589.10;2432.00;;;;;;5035425;28;20025;-89
2021/07/30 04:43:36;;;;;;;22.67;13.10;;;589.20;2432.00;;;;;;5036311;28;20100;-89
2021/07/30 04:46:03;;;;;;;24.33;12.23;;;589.10;2432.00;;;;;;5035555;28;20403;-89
2021/07/30 04:48:29;;;;;;;23.52;12.25;;;589.20;2432.00;;;;;;5035178;28;20091;-89
2021/07/30 04:50:55;;;;;;;26.98;12.77;;;589.40;2432.00;;;;;;5036098;28;20124;-89
2021/07/30 04:53:21;;;;;;;28.45;12.27;;;589.30;2432.00;;;;;;5036253;28;20053;-88
2021/07/30 04:55:47;;;;;;;29.40;13.35;;;589.30;2432.00;;;;;;5035784;28;20025;-88
2021/07/30 04:58:14;;;;;;;24.38;11.75;;;589.10;2432.00;;;;;;5035347;28;20041;-88
2021/07/30 05:00:40;;;;;;;26.23;12.80;;;564.10;2432.00;;;;;;5035582;28;20014;-89
2021/07/30 05:03:06;;;;;;;25.02;11.88;;;589.40;2432.00;;;;;;5036289;28;20380;-88
2021/07/30 05:05:32;;;;;;;24.98;11.27;;;589.40;2432.00;;;;;;5035868;28;20025;-88
2021/07/30 05:07:58;;;;;;;21.88;11.68;;;589.50;2432.00;;;;;;5035557;28;20017;-88
2021/07/30 05:10:25;;;;;;;29.60;11.88;;;589.20;2432.00;;;;;;5035622;28;20018;-88
2021/07/30 05:12:51;;;;;;;17.88;11.73;;;589.50;2432.00;;;;;;5035848;28;20808;-88
2021/07/30 05:15:17;;;;;;;26.67;13.65;;;589.70;2432.00;;;;;;5035303;28;20079;-87
2021/07/30 05:17:43;;;;;;;28.67;12.82;;;589.40;2432.00;;;;;;5035463;28;20025;-88
2021/07/30 05:20:10;;;;;;;16.17;11.80;;;589.60;2432.00;;;;;;5035620;28;20017;-89
2021/07/30 05:22:39;;;;;;;26.63;12.50;;;589.70;2432.00;;;;;;5035478;28;20068;-88
2021/07/30 05:25:05;;;;;;;24.33;13.20;;;589.70;2432.00;;;;;;5035104;28;20048;-87
2021/07/30 05:27:32;;;;;;;24.17;12.77;;;589.40;2432.00;;;;;;5035000;28;20048;-88
2021/07/30 05:29:58;;;;;;;26.20;13.63;;;589.70;2432.00;;;;;;5035076;28;20033;-88
2021/07/30 05:32:25;;;;;;;30.23;13.32;;;589.70;2432.00;;;;;;5035025;28;20047;-88
2021/07/30 05:34:51;;;;;;;21.05;12.23;;;614.40;2432.00;;;;;;5035233;28;20018;-88
2021/07/30 05:37:17;;;;;;;24.58;13.48;;;614.60;2432.00;;;;;;5035188;28;20067;-88
2021/07/30 05:39:43;;;;;;;27.27;13.35;;;614.60;2432.00;;;;;;5034839;28;20086;-87
2021/07/30 05:42:09;;;;;;;24.50;12.07;;;614.90;2432.00;;;;;;5034996;28;20067;-87
2021/07/30 05:44:36;;;;;;;24.83;12.30;;;614.80;2432.00;;;;;;5034638;28;20025;-87
2021/07/30 05:47:03;;;;;;;27.45;13.20;;;615.00;2432.00;;;;;;5034927;28;20018;-88
2021/07/30 05:49:29;;;;;;;24.27;12.63;;;614.80;2432.00;;;;;;5034892;28;20108;-88
2021/07/30 05:51:55;;;;;;;32.50;14.38;;;615.00;2432.00;;;;;;5034689;28;20021;-88
2021/07/30 05:54:22;;;;;;;23.08;12.52;;;615.00;2432.00;;;;;;5035233;28;20028;-88
2021/07/30 05:56:48;;;;;;;26.48;12.65;;;615.00;2432.00;;;;;;5034826;28;20100;-89
2021/07/30 05:59:14;;;;;;;27.30;12.68;;;615.10;2432.00;;;;;;5034616;28;20534;-88
2021/07/30 06:01:40;;;;;;;32.97;12.88;;;615.10;2432.00;;;;;;5034806;28;20022;-88
2021/07/30 06:04:06;;;;;;;25.00;12.15;;;615.10;2432.00;;;;;;5034744;28;20021;-88
2021/07/30 06:06:33;;;;;;;29.42;12.85;;;640.70;2432.00;;;;;;5034559;28;20022;-88
2021/07/30 06:08:59;;;;;;;27.98;11.95;;;615.20;2432.00;;;;;;5035327;28;20056;-88
2021/07/30 06:11:25;;;;;;;25.98;12.38;;;615.20;2432.00;;;;;;5039120;28;20021;-87
2021/07/30 06:13:51;;;;;;;27.15;11.90;;;640.00;2432.00;;;;;;5044804;28;20029;-88
2021/07/30 06:16:17;;;;;;;28.90;12.25;;;640.20;2432.00;;;;;;5046622;28;20032;-87
2021/07/30 06:18:44;;;;;;;24.40;12.07;;;640.10;2432.00;;;;;;5046448;28;20084;-87
2021/07/30 06:21:11;;;;;;;24.55;13.45;;;640.10;2432.00;;;;;;5044444;28;20048;-88
2021/07/30 06:23:37;;;;;;;28.00;12.63;;;640.20;2432.00;;;;;;5034071;28;20013;-88
2021/07/30 06:26:03;;;;;;;20.83;11.75;;;640.40;2432.00;;;;;;5033927;28;20116;-87
2021/07/30 06:28:29;;;;;;;29.77;13.05;;;640.40;2432.00;;;;;;5034035;28;20022;-87
2021/07/30 06:30:55;;;;;;;27.92;11.75;;;640.40;2432.00;;;;;;5034144;28;20022;-87
2021/07/30 06:33:23;;;;;;;29.05;13.90;;;640.50;2432.00;;;;;;5034018;28;20084;-87
2021/07/30 06:35:50;;;;;;;28.83;12.43;;;;;;;;;;5033949;28;20025;-87
2021/07/30 06:38:16;;;;;;;34.80;13.43;;;640.80;2432.00;;;;;;5033988;28;20172;-87
2021/07/30 06:40:46;;;;;;;24.88;11.40;;;640.90;2432.00;;;;;;5033926;28;20013;-88
2021/07/30 06:43:12;;;;;;;21.95;12.07;;;665.60;2432.00;;;;;;5034133;28;20024;-88
2021/07/30 06:45:38;;;;;;;22.40;12.00;;;665.70;2432.00;;;;;;5034141;28;20104;-89
2021/07/30 06:48:05;;;;;;;23.02;10.73;;;665.80;2432.00;;;;;;5034048;28;20366;-88
2021/07/30 06:50:31;;;;;;;22.40;13.00;;;665.90;2432.00;;;;;;5034044;28;20018;-88
2021/07/30 06:52:57;;;;;;;28.95;11.63;;;666.00;2432.00;;;;;;5034116;28;20417;-90
2021/07/30 06:55:24;;;;;;;22.58;11.30;;;666.10;2432.00;;;;;;5033933;28;20474;-88
2021/07/30 06:57:50;;;;;;;27.95;13.02;;;666.20;2432.00;;;;;;5033189;28;20068;-88
2021/07/30 07:00:16;;;;;;;23.48;11.73;;;666.50;2432.00;;;;;;5033908;28;20053;-88
2021/07/30 07:02:43;;;;;;;23.23;12.20;;;666.50;2432.00;;;;;;5034391;28;20067;-89
2021/07/30 07:05:09;;;;;;;26.85;14.38;;;666.50;2432.00;;;;;;5033509;28;20018;-89
2021/07/30 07:07:36;;;;;;;28.33;14.05;;;691.50;2432.00;;;;;;5033781;28;20025;-88
2021/07/30 07:10:02;;;;;;;20.42;13.00;;;691.50;2432.00;;;;;;5034494;28;20025;-89
2021/07/30 07:12:28;;;;;;;31.98;14.50;;;691.50;2432.00;;;;;;5037552;28;20048;-88
2021/07/30 07:14:54;;;;;;;29.50;11.63;;;691.70;2432.00;;;;;;5037428;28;20080;-88
2021/07/30 07:17:20;;;;;;;24.25;11.38;;;691.60;2432.00;;;;;;5037624;28;20167;-88
2021/07/30 07:19:47;;;;;;;18.23;11.00;;;691.80;2432.00;;;;;;5037564;28;20022;-88
2021/07/30 07:22:13;;;;;;;30.52;11.50;;;691.90;2432.00;;;;;;5037389;28;20108;-89
2021/07/30 07:24:40;;;;;;;27.35;12.13;;;692.10;2432.00;;;;;;5037628;28;20017;-89
2021/07/30 07:27:07;;;;;;;23.92;11.20;;;692.10;2432.00;;;;;;5038780;28;20017;-89
2021/07/30 07:29:33;;;;;;;24.58;11.25;;;692.10;2432.00;;;;;;5038337;28;20032;-88
2021/07/30 07:32:00;;;;;;;22.05;11.57;;;716.90;2432.00;;;;;;5037445;28;20462;-82
2021/07/30 07:34:26;;;;;;;25.48;11.60;;;717.00;2432.00;;;;;;5036982;28;20022;-87
2021/07/30 07:36:53;;;;;;;21.38;11.77;;;717.10;2432.00;;;;;;5037021;28;20028;-86
2021/07/30 07:39:19;;;;;;;23.05;11.85;;;717.20;2432.00;;;;;;5036673;28;20052;-85
2021/07/30 07:41:45;;;;;;;27.23;14.02;;;717.40;2432.00;;;;;;5036936;28;20045;-86
2021/07/30 07:44:15;;;;;;;24.33;13.05;;;717.40;2432.00;;;;;;5036428;28;20370;-86
2021/07/30 07:46:44;;;;;;;25.65;13.68;;;717.70;2432.00;;;;;;5036685;28;20025;-86
2021/07/30 07:49:10;;;;;;;24.05;13.82;;;742.50;2432.00;;;;;;5036691;28;20021;-85
2021/07/30 07:51:36;;;;;;;29.15;13.13;;;742.70;2432.00;;;;;;5036369;28;20112;-84
2021/07/30 07:54:03;;;;;;;24.90;13.35;;;742.90;2432.00;;;;;;5036152;28;20481;-85
2021/07/30 07:56:29;;;;;;;26.08;12.27;;;743.00;2432.00;;;;;;5037678;28;20033;-83
2021/07/30 07:58:55;;;;;;;24.02;12.07;;;742.80;2432.00;;;;;;5039503;28;20021;-85
2021/07/30 08:01:21;;;;;;;23.02;12.85;;;742.90;2432.00;;;;;;5039661;28;20071;-85
2021/07/30 08:03:50;;;;;;;23.05;13.45;;;743.10;2432.00;;;;;;5039500;28;20020;-85
2021/07/30 08:06:17;;;;;;;32.15;14.57;;;743.30;2432.00;;;;;;5039297;28;20070;-84
2021/07/30 08:08:43;;;;;;;21.98;12.13;;;768.00;2432.00;;;;;;5039224;28;20025;-84
2021/07/30 08:11:09;;;;;;;24.55;13.00;;;743.30;2432.00;;;;;;5039044;28;20032;-83
2021/07/30 08:13:35;;;;;;;22.55;12.25;;;743.10;2432.00;;;;;;5038763;28;20021;-84
2021/07/30 08:16:01;;;;;;;25.08;13.57;;;743.30;2432.00;;;;;;5038975;28;20048;-85
2021/07/30 08:18:27;;;;;;;22.25;14.05;;;768.20;2432.00;;;;;;5038434;28;20074;-82
2021/07/30 08:20:53;;;;;;;21.20;13.10;;;768.40;2432.00;;;;;;5038034;28;20107;-82
2021/07/30 08:23:19;;;;;;;23.17;12.68;;;768.50;2432.00;;;;;;5038158;28;20040;-82
2021/07/30 08:25:45;;;;;;;24.23;13.52;;;768.70;2432.00;;;;;;5038824;28;20032;-83
2021/07/30 08:28:11;;;;;;;31.63;13.27;;;793.60;2432.00;;;;;;5039583;28;20060;-85
2021/07/30 08:30:37;;;;;;;23.63;11.77;;;768.90;2432.00;;;;;;5039776;28;20016;-86
2021/07/30 08:33:02;;;;;;;21.38;12.30;;;793.80;2432.00;;;;;;5039086;28;20213;-87
2021/07/30 08:35:28;;;;;;;18.38;11.73;;;793.80;2432.00;;;;;;5039183;28;20024;-83
2021/07/30 08:37:54;;;;;;;22.92;13.10;;;794.00;2432.00;;;;;;5039204;28;20025;-87
2021/07/30 08:40:20;;;;;;;20.75;11.88;;;793.90;2432.00;;;;;;5039424;28;20416;-84
2021/07/30 08:42:48;;;;;;;23.25;12.88;;;794.20;2432.00;;;;;;5038854;28;20021;-84
2021/07/30 08:45:14;;;;;;;23.38;11.98;;;794.30;2432.00;;;;;;5038678;28;20124;-85
2021/07/30 08:47:40;;;;;;;22.80;12.43;;;794.20;2432.00;;;;;;5038944;28;20049;-84
2021/07/30 08:50:06;;;;;;;24.30;13.93;;;794.20;2432.00;;;;;;5038969;28;20074;-84
2021/07/30 08:52:36;;;;;;;22.55;12.02;;;794.50;2432.00;;;;;;5038668;28;20071;-83
2021/07/30 08:55:03;;;;;;;20.80;12.32;;;819.30;2432.00;;;;;;5038428;28;20108;-86
2021/07/30 08:57:29;;;;;;;20.63;12.27;;;794.50;2432.00;;;;;;5038399;28;20044;-85
2021/07/30 08:59:55;;;;;;;21.90;11.60;;;819.20;2432.00;;;;;;5038431;28;20037;-87
2021/07/30 09:02:20;;;;;;;19.20;11.32;;;819.40;2432.00;;;;;;5038200;28;20025;-81
2021/07/30 09:04:46;;;;;;;28.05;12.65;;;794.50;2432.00;;;;;;5037360;28;20024;-81
2021/07/30 09:07:12;;;;;;;24.27;14.10;;;819.30;2432.00;;;;;;5037195;28;20021;-83
2021/07/30 09:09:50;;;;;;;26.33;14.02;;;819.60;2432.00;;;;;;5037394;28;20482;-82
2021/07/30 09:12:21;;;;;;;22.55;12.23;;;820.00;2432.00;;;;;;5055390;28;20017;-83
2021/07/30 09:14:48;;;;;;;26.52;11.52;;;820.00;2432.00;;;;;;5035027;28;20087;-82
2021/07/30 09:17:14;;;;;;;25.08;11.75;;;819.70;2432.00;;;;;;5037130;28;20078;-84
2021/07/30 09:20:03;;;;;;;23.33;10.85;;;819.50;2432.00;;;;;;5037745;28;20124;-87
2021/07/30 09:22:46;;;;;;;27.75;14.70;;;819.90;2432.00;;;;;;5038188;28;20021;-87
2021/07/30 09:25:12;;;;;;;34.10;12.52;;;844.90;2432.00;;;;;;5037531;28;20451;-86
2021/07/30 09:27:38;;;;;;;22.30;12.68;;;845.20;2432.00;;;;;;5037833;28;20417;-88
2021/07/30 09:30:14;;;;;;;22.83;15.13;;;845.10;2432.00;;;;;;5038054;28;20013;-85
2021/07/30 09:32:40;;;;;;;20.88;11.50;;;845.70;2432.00;;;;;;5037465;28;20021;-87
2021/07/30 09:35:07;;;;;;;24.52;12.48;;;845.60;2432.00;;;;;;5038091;28;20036;-86
2021/07/30 09:37:33;;;;;;;29.27;12.80;;;845.70;2432.00;;;;;;5037603;28;20025;-87
2021/07/30 09:40:01;;;;;;;25.15;13.68;;;870.70;2432.00;;;;;;5037821;28;20082;-89
2021/07/30 09:42:34;;;;;;;20.92;11.68;;;870.80;2432.00;;;;;;5037895;28;20021;-85
2021/07/30 09:45:03;;;;;;;25.48;11.90;;;870.50;2432.00;;;;;;5038222;28;20522;-85
2021/07/30 09:47:31;;;;;;;21.27;11.88;;;870.70;2432.00;;;;;;5038135;28;20032;-87
2021/07/30 09:50:03;;;;;;;23.45;10.52;;;871.00;2432.00;;;;;;5037893;28;20102;-88
2021/07/30 09:52:33;;;;;;;31.38;11.73;;;870.90;2406.40;;;;;;5039093;28;20013;-88
2021/07/30 09:55:01;;;;;;;26.33;9.75;;;870.90;2432.00;;;;;;5039309;28;20081;-89
2021/07/30 09:57:35;;;;;;;24.20;15.45;;;870.90;2432.00;;;;;;5037287;28;20080;-89
2021/07/30 10:00:05;;;;;;;26.38;10.60;;;871.10;2406.40;;;;;;5037660;28;20489;-86
2021/07/30 10:02:33;;;;;;;19.02;8.82;;;871.20;2355.20;;;;;;5037600;28;20027;-86
2021/07/30 10:05:14;;;;;;;;;;;;;;;;;;;;;
2021/07/30 10:07:47;;;;;;;23.00;11.48;;;871.20;2252.80;;;;;;5055155;28;20500;-87
2021/07/30 10:10:21;;;;;;;24.85;9.85;;;871.30;2304.00;;;;;;5037310;28;20207;-87
2021/07/30 10:12:51;;;;;;;25.02;10.85;;;896.00;2304.00;;;;;;5038194;28;20083;-87
2021/07/30 10:15:18;;;;;;;27.67;13.30;;;896.30;2278.40;;;;;;5037408;28;20425;-88
2021/07/30 10:17:49;;;;;;;16.77;8.85;;;896.60;2252.80;;;;;;5037446;28;20029;-90
2021/07/30 10:20:23;;;;;;;25.25;11.48;;;896.60;2227.20;;;;;;5037521;28;20021;-90
2021/07/30 10:23:14;;;;;;;28.85;13.05;;;896.50;2227.20;;;;;;5037641;28;20021;-86
2021/07/30 10:25:48;;;;;;;26.38;11.98;;;896.80;2252.80;;;;;;5037510;28;20021;-86
2021/07/30 10:28:19;;;;;;;25.63;10.30;;;921.80;2227.20;;;;;;5039250;28;20516;-86
2021/07/30 10:30:52;;;;;;;27.20;9.10;;;921.70;2176.00;;;;;;5037520;28;20021;-83
2021/07/30 10:33:30;;;;;;;32.75;12.77;;;921.90;2124.80;;;;;;5037211;28;20056;-86
2021/07/30 10:36:01;;;;;;;22.55;11.15;;;921.60;2124.80;;;;;;5036886;28;20056;-86
2021/07/30 10:38:27;;;;;;;22.80;12.00;;;922.00;2124.80;;;;;;5036394;28;20350;-84
2021/07/30 10:40:56;;;;;;;26.23;10.98;;;922.20;2124.80;;;;;;5036364;28;20541;-85
2021/07/30 10:43:23;;;;;;;22.83;11.73;;;922.40;1971.20;;;;;;5036579;28;20084;-87
2021/07/30 10:46:13;;;;;;;23.27;9.60;;;922.40;2073.60;;;;;;5036356;28;20063;-85
2021/07/30 10:48:39;;;;;;;35.53;12.73;;;922.50;2022.40;;;;;;5037201;28;20020;-83
2021/07/30 10:51:27;;;;;;;26.52;10.88;;;947.30;2022.40;;;;;;5036491;28;20412;-81
2021/07/30 10:53:56;;;;;;;26.13;12.38;;;947.70;1971.20;;;;;;5036616;28;20021;-82
2021/07/30 10:56:21;;;;;;;23.50;11.15;;;947.90;1945.60;;;;;;5036248;28;20107;-83
2021/07/30 10:58:50;;;;;;;38.10;13.32;;;948.10;1945.60;;;;;;5036360;28;20115;-85
2021/07/30 11:01:28;;;;;;;23.38;10.18;;;972.90;1945.60;;;;;;5036530;28;20032;-85
2021/07/30 11:03:56;;;;;;;23.73;9.88;;;973.00;1945.60;;;;;;5036354;28;20017;-83
2021/07/30 11:06:29;;;;;;;26.05;9.00;;;973.10;1868.80;;;;;;5036070;28;20021;-84
2021/07/30 11:09:04;;;;;;;24.92;10.35;;;973.10;1792.00;;;;;;5036340;28;20048;-84
2021/07/30 11:11:39;;;;;;;22.02;9.32;;;973.20;1792.00;;;;;;5037304;28;20033;-84
2021/07/30 11:14:16;;;;;;;21.90;10.55;;;973.30;1792.00;;;;;;5042374;28;20021;-83
2021/07/30 11:16:46;;;;;;;25.63;9.50;;;973.50;1766.40;;;;;;5027982;28;20043;-85
2021/07/30 11:19:14;;;;;;;19.42;8.98;;;973.60;1792.00;;;;;;5037294;28;20025;-85
2021/07/30 11:21:41;;;;;;;20.38;9.25;;;973.10;1766.40;;;;;;5037327;28;20454;-84
2021/07/30 11:24:08;;;;;;;25.95;9.70;;;973.50;1766.40;;;;;;5037062;28;20116;-82
2021/07/30 11:26:46;;;;;;;21.75;10.48;;;973.60;1715.20;;;;;;5039855;28;20036;-84
2021/07/30 11:29:15;;;;;;;23.35;9.60;;;973.70;1715.20;;;;;;5037478;28;20098;-83
2021/07/30 11:32:06;;;;;;;26.27;10.18;;;998.40;1740.80;;;;;;5054920;28;20404;-80
2021/07/30 11:34:37;;;;;;;23.73;13.73;;;973.40;1689.60;;;;;;5038562;28;20021;-84
2021/07/30 11:37:08;;;;;;;22.40;8.25;;;973.70;1664.00;;;;;;5036693;28;20052;-85
2021/07/30 11:39:49;;;;;;;22.33;8.70;;;973.70;1612.80;;;;;;5037128;28;20025;-83
2021/07/30 11:42:27;;;;;;;21.58;11.50;;;973.70;1715.20;;;;;;5036920;28;20059;-85
2021/07/30 11:45:06;;;;;;;28.70;10.52;;;998.60;1689.60;;;;;;5040943;28;20021;-89
2021/07/30 11:47:34;;;;;;;25.45;8.25;;;998.90;1664.00;;;;;;5038524;28;20032;-89
2021/07/30 11:50:09;;;;;;;29.23;8.35;;;998.90;1612.80;;;;;;5036648;28;20048;-88
2021/07/30 11:52:39;;;;;;;24.42;9.50;;;998.80;1612.80;;;;;;5036867;28;20036;-88
2021/07/30 11:55:16;;;;;;;26.20;9.55;;;998.80;1587.20;;;;;;5036778;28;20573;-87
2021/07/30 11:57:42;;;;;;;24.35;11.18;;;998.40;1638.40;;;;;;5042267;28;20037;-89
2021/07/30 12:00:08;;;;;;;19.63;11.30;;;998.80;1664.00;;;;;;5039992;28;20029;-83
2021/07/30 12:02:34;;;;;;;27.48;14.02;;;999.00;1612.80;;;;;;5058387;28;20021;-85
2021/07/30 12:05:00;;;;;;;23.05;9.38;;;999.20;1612.80;;;;;;5038853;28;20029;-77
2021/07/30 12:07:36;;;;;;;18.80;8.95;;;1024.00;1612.80;;;;;;5056172;28;20071;-76